Time;durP1;ratioP1;P1;durP2;ratioP2;P2;SDS_P1;SDS_P2;PMS_P1;PMS_P2;Temp;Humidity;BMP_temperature;BMP_pressure;BME280_temperature;BME280_humidity;BME280_pressure;Samples;Min_cycle;Max_cycle;Signal;HPM_P1;HPM_P2
2021/12/15 00:01:38;;;;;;;45.03;18.17;;;;;;;1.29;96.40;95046.78;4839678;29;20665;-63
2021/12/15 00:04:07;;;;;;;46.28;17.88;;;;;;;1.33;96.38;95048.53;4840450;29;20479;-63
2021/12/15 00:06:34;;;;;;;47.15;17.05;;;;;;;1.43;96.40;95035.72;4838193;29;20419;-63
2021/12/15 00:09:09;;;;;;;55.33;19.90;;;;;;;1.56;96.10;95043.56;4840421;29;20054;-63
2021/12/15 00:11:37;;;;;;;63.78;24.20;;;;;;;1.70;94.99;95048.72;4839478;29;20054;-63
2021/12/15 00:14:07;;;;;;;53.03;21.17;;;;;;;1.87;94.89;95041.56;4840372;29;20053;-63
2021/12/15 00:16:35;;;;;;;44.30;16.38;;;;;;;1.84;94.49;95037.63;4839607;29;20073;-63
2021/12/15 00:19:03;;;;;;;41.35;15.35;;;;;;;1.58;95.43;95037.84;4840460;29;20050;-64
2021/12/15 00:21:30;;;;;;;47.63;16.23;;;;;;;1.62;95.43;95038.75;4839240;29;20111;-64
2021/12/15 00:23:57;;;;;;;51.03;16.42;;;;;;;1.49;95.79;95045.22;4838966;29;20062;-63
2021/12/15 00:26:24;;;;;;;49.93;16.57;;;;;;;1.56;95.70;95040.88;4839486;29;20050;-63
2021/12/15 00:28:52;;;;;;;56.53;17.35;;;;;;;1.39;96.00;95035.59;4840215;29;20046;-63
2021/12/15 00:31:20;;;;;;;49.90;15.95;;;;;;;1.20;97.22;95039.50;4839378;29;20424;-64
2021/12/15 00:33:47;;;;;;;55.78;16.30;;;;;;;1.31;96.96;95042.66;4839302;29;20523;-63
2021/12/15 00:36:14;;;;;;;51.30;17.00;;;;;;;1.19;98.10;95043.34;4838122;29;20060;-63
2021/12/15 00:38:43;;;;;;;55.37;18.13;;;;;;;1.21;97.61;95043.03;4839780;29;20050;-63
2021/12/15 00:41:10;;;;;;;54.25;17.38;;;;;;;1.28;97.85;95042.50;4837285;29;20403;-63
2021/12/15 00:43:38;;;;;;;55.28;18.55;;;;;;;1.42;97.43;95045.75;4809710;29;20046;-63
2021/12/15 00:46:05;;;;;;;52.72;17.98;;;;;;;1.52;96.82;95039.16;4819891;29;20135;-63
2021/12/15 00:48:32;;;;;;;50.53;17.73;;;;;;;1.53;96.75;95048.84;4820878;29;20075;-63
2021/12/15 00:50:59;;;;;;;64.60;16.93;;;;;;;1.43;96.76;95047.34;4834602;29;20054;-63
2021/12/15 00:53:27;;;;;;;49.03;16.13;;;;;;;1.45;97.17;95057.81;4853139;29;20049;-64
2021/12/15 00:55:54;;;;;;;56.25;15.68;;;;;;;1.40;97.27;95064.22;4839826;29;20052;-63
2021/12/15 00:58:21;;;;;;;48.50;15.65;;;;;;;1.57;97.57;95066.81;4852640;29;20046;-64
2021/12/15 01:00:58;;;;;;;44.75;15.90;;;;;;;1.63;97.06;95070.13;4839537;29;20195;-63
2021/12/15 01:03:25;;;;;;;48.33;15.63;;;;;;;1.70;96.86;95069.56;4838741;29;20056;-64
2021/12/15 01:05:59;;;;;;;56.65;16.02;;;;;;;1.73;96.67;95077.84;4839351;29;20046;-64
2021/12/15 01:08:29;;;;;;;60.28;15.70;;;;;;;1.70;96.79;95077.69;4838760;29;20067;-63
2021/12/15 01:11:10;;;;;;;69.05;16.63;;;;;;;1.69;96.80;95074.22;4839736;29;20419;-63
2021/12/15 01:22:05;;;;;;;102.40;35.75;;;;;;;1.60;98.63;95065.34;4839279;29;20057;-62
2021/12/15 01:24:32;;;;;;;73.05;21.83;;;;;;;1.73;98.23;95071.59;4838619;29;20057;-62
2021/12/15 01:26:59;;;;;;;80.15;16.17;;;;;;;1.69;98.08;95065.28;4838855;29;20068;-62
2021/12/15 01:29:26;;;;;;;69.43;16.37;;;;;;;1.72;98.18;95065.41;4838298;29;20061;-62
2021/12/15 01:31:52;;;;;;;78.93;16.05;;;;;;;1.66;98.56;95060.53;4839252;29;20046;-62
2021/12/15 01:34:19;;;;;;;69.85;16.42;;;;;;;1.60;98.74;95059.94;4837221;29;20136;-62
2021/12/15 01:36:46;;;;;;;65.85;16.25;;;;;;;1.55;98.62;95060.13;4839021;29;20066;-62
2021/12/15 01:39:13;;;;;;;59.35;15.88;;;;;;;1.45;99.07;95063.22;4838766;29;20060;-60
2021/12/15 01:41:40;;;;;;;60.03;16.70;;;;;;;1.55;99.62;95062.81;4837182;29;20080;-62
2021/12/15 01:46:56;;;;;;;62.65;19.23;;;;;;;1.68;99.18;95072.59;4840593;29;20050;-62
2021/12/15 01:49:42;;;;;;;59.85;16.95;;;;;;;1.77;98.79;95078.75;4841936;29;20054;-62
2021/12/15 01:52:09;;;;;;;40.42;14.77;;;;;;;1.88;98.51;95084.56;4842854;29;20058;-62
2021/12/15 01:54:40;;;;;;;47.40;15.20;;;;;;;1.89;97.92;95077.22;4841732;29;20053;-62
2021/12/15 01:57:09;;;;;;;41.10;12.88;;;;;;;1.91;97.88;95072.25;4840876;29;20180;-62
2021/12/15 01:59:36;;;;;;;41.97;12.35;;;;;;;1.91;97.49;95083.09;4841959;29;20046;-62
2021/12/15 02:02:04;;;;;;;28.23;10.82;;;;;;;2.00;97.28;95081.91;4842719;29;20125;-62
2021/12/15 02:04:31;;;;;;;31.55;10.82;;;;;;;1.97;97.30;95084.47;4841819;29;20058;-62
2021/12/15 02:07:01;;;;;;;74.50;32.53;;;;;;;1.97;97.57;95079.88;4842564;29;20392;-62
2021/12/15 02:10:01;;;;;;;33.13;10.30;;;;;;;1.88;97.24;95081.84;4840673;29;20054;-62
2021/12/15 02:12:20;;;;;;;31.88;7.43;;;;;;;1.92;97.15;95081.97;4841701;29;20054;-61
2021/12/15 02:14:47;;;;;;;24.98;7.10;;;;;;;1.93;97.08;95081.66;4842256;29;20518;-62
2021/12/15 02:17:15;;;;;;;24.35;7.05;;;;;;;1.93;96.96;95076.25;4826466;29;20105;-61
2021/12/15 02:19:42;;;;;;;22.60;7.57;;;;;;;1.96;96.66;95080.19;4812348;29;20054;-62
2021/12/15 02:22:09;;;;;;;16.88;7.00;;;;;;;1.90;96.56;95090.44;4823754;29;20050;-62
2021/12/15 02:24:38;;;;;;;22.58;7.78;;;;;;;1.91;96.61;95085.78;4823117;29;20066;-62
2021/12/15 02:27:06;;;;;;;17.42;7.18;;;;;;;1.90;96.51;95085.00;4823789;29;20057;-62
2021/12/15 02:29:38;;;;;;;18.35;7.55;;;;;;;1.94;96.22;95093.28;4823077;29;20050;-62
2021/12/15 02:32:31;;;;;;;19.30;7.40;;;;;;;2.04;96.02;95094.78;4823770;29;20133;-62
2021/12/15 02:37:45;;;;;;;17.08;7.10;;;;;;;2.17;95.29;95090.97;4793965;29;20911;-62
2021/12/15 02:40:17;;;;;;;16.58;6.90;;;;;;;2.24;94.74;95091.25;4823370;29;20065;-61
2021/12/15 02:42:48;;;;;;;22.33;10.10;;;;;;;2.28;94.71;95094.09;4837170;29;20054;-62
2021/12/15 02:45:19;;;;;;;37.30;17.30;;;;;;;2.20;94.04;95104.66;4823290;29;20053;-61
2021/12/15 02:47:47;;;;;;;37.30;15.93;;;;;;;2.18;93.98;95098.00;4823558;29;20224;-62
2021/12/15 02:50:20;;;;;;;22.80;9.70;;;;;;;1.99;93.72;95096.56;4829174;29;20045;-60
2021/12/15 02:52:46;;;;;;;21.50;8.90;;;;;;;1.95;94.23;95095.66;4841838;29;20228;-62
2021/12/15 02:55:14;;;;;;;18.27;8.20;;;;;;;2.07;94.18;95094.88;4840079;29;20058;-61
2021/12/15 02:57:43;;;;;;;22.07;9.37;;;;;;;2.00;93.87;95100.06;4839887;29;20086;-62
2021/12/15 03:00:24;;;;;;;23.17;8.70;;;;;;;1.85;95.04;95106.06;4841726;29;20534;-62
2021/12/15 03:05:44;;;;;;;24.88;9.27;;;;;;;1.93;94.74;95097.91;4840771;29;20125;-62
2021/12/15 03:08:19;;;;;;;19.73;8.05;;;;;;;1.90;95.08;95097.75;4840846;29;20057;-59
2021/12/15 03:16:24;;;;;;;16.08;6.60;;;;;;;1.80;94.67;95093.53;4850686;29;20065;-63
2021/12/15 03:18:51;;;;;;;15.13;6.32;;;;;;;1.80;95.53;95094.31;4816741;29;20054;-62
2021/12/15 03:21:24;;;;;;;15.98;6.45;;;;;;;1.86;95.06;95086.81;4804389;29;20073;-61
2021/12/15 03:23:56;;;;;;;15.50;6.13;;;;;;;1.73;95.02;95085.94;4804551;29;20089;-62
2021/12/15 03:26:50;;;;;;;20.75;6.32;;;;;;;1.75;94.58;95093.72;4802808;29;20414;-61
2021/12/15 03:37:29;;;;;;;12.53;5.03;;;;;;;1.99;93.87;95084.94;4804400;29;20428;-62
2021/12/15 03:40:07;;;;;;;13.40;5.50;;;;;;;2.08;93.14;95087.59;4804705;29;20047;-62
2021/12/15 03:42:42;;;;;;;13.20;6.03;;;;;;;2.00;93.35;95090.03;4803735;29;20043;-62
2021/12/15 03:45:14;;;;;;;11.13;5.00;;;;;;;2.08;93.02;95091.06;4804435;29;20077;-62
2021/12/15 03:47:47;;;;;;;7.72;3.95;;;;;;;2.00;92.63;95090.03;4803293;29;20055;-62
2021/12/15 03:50:17;;;;;;;8.63;3.93;;;;;;;1.86;92.34;95084.09;4818608;29;20397;-60
2021/12/15 03:52:48;;;;;;;8.43;3.90;;;;;;;1.99;92.63;95091.16;4840294;29;20399;-62
2021/12/15 03:55:25;;;;;;;8.32;4.28;;;;;;;2.01;92.19;95088.09;4840232;29;20065;-61
2021/12/15 03:57:52;;;;;;;9.18;4.10;;;;;;;1.85;92.72;95092.53;4839883;29;20050;-62
2021/12/15 04:00:20;;;;;;;9.35;4.30;;;;;;;1.82;93.18;95094.00;4840173;29;20076;-61
2021/12/15 04:02:48;;;;;;;8.60;4.47;;;;;;;1.94;93.18;95090.56;4840264;29;20050;-62
2021/12/15 04:05:18;;;;;;;8.60;4.20;;;;;;;2.04;92.75;95097.50;4839786;29;20054;-61
2021/12/15 04:07:47;;;;;;;8.50;4.20;;;;;;;2.10;92.68;95094.25;4840090;29;20046;-62
2021/12/15 04:10:21;;;;;;;9.30;4.22;;;;;;;2.10;92.04;95090.75;4840034;29;20054;-61
2021/12/15 04:12:48;;;;;;;8.10;3.97;;;;;;;2.13;92.11;95100.91;4840071;29;20050;-62
2021/12/15 04:15:29;;;;;;;11.37;4.40;;;;;;;1.97;92.13;95092.59;4839762;29;20046;-61
2021/12/15 04:17:59;;;;;;;9.35;5.22;;;;;;;2.09;92.38;95102.69;4839066;29;20046;-62
2021/12/15 04:20:29;;;;;;;10.80;5.30;;;;;;;2.13;92.30;95104.41;4839648;29;20060;-62
2021/12/15 04:22:56;;;;;;;33.90;15.75;;;;;;;2.15;92.33;95098.66;4839942;29;20046;-62
2021/12/15 04:25:27;;;;;;;28.27;12.75;;;;;;;2.16;92.04;95105.66;4838110;29;20050;-62
2021/12/15 04:28:05;;;;;;;13.93;5.90;;;;;;;1.98;92.57;95105.03;4839972;29;20049;-62
2021/12/15 04:30:34;;;;;;;8.75;4.20;;;;;;;1.86;93.21;95105.75;4839937;29;20053;-62
2021/12/15 04:33:07;;;;;;;9.35;3.88;;;;;;;1.77;93.43;95100.41;4840074;29;20058;-63
2021/12/15 04:35:35;;;;;;;9.60;4.45;;;;;;;1.80;93.94;95101.66;4839444;29;20069;-63
2021/12/15 04:38:02;;;;;;;9.07;4.55;;;;;;;1.79;94.17;95111.69;4840207;29;20126;-62
2021/12/15 04:40:29;;;;;;;15.63;4.50;;;;;;;1.55;94.72;95106.94;4853592;29;20053;-62
2021/12/15 04:42:58;;;;;;;11.73;4.60;;;;;;;1.56;95.94;95103.09;4839338;29;20046;-62
2021/12/15 04:45:26;;;;;;;32.08;5.32;;;;;;;1.39;95.80;95103.22;4839345;29;20072;-62
2021/12/15 04:47:53;;;;;;;20.20;5.18;;;;;;;1.35;96.62;95110.41;4853574;29;20461;-62
2021/12/15 04:50:24;;;;;;;14.63;4.80;;;;;;;1.47;96.93;95104.25;4838911;29;20056;-62
2021/12/15 04:52:52;;;;;;;23.70;4.90;;;;;;;1.60;96.22;95105.94;4839371;29;20058;-63
2021/12/15 04:55:20;;;;;;;20.10;5.53;;;;;;;1.64;96.07;95096.03;4839249;29;20072;-62
2021/12/15 04:57:48;;;;;;;15.07;5.00;;;;;;;1.65;95.89;95102.22;4838825;29;20526;-62
2021/12/15 05:00:21;;;;;;;13.23;4.68;;;;;;;1.71;95.77;95101.72;4839070;29;20050;-62
2021/12/15 05:02:50;;;;;;;12.00;4.88;;;;;;;1.79;95.98;95094.63;4839267;29;20046;-62
2021/12/15 05:05:20;;;;;;;20.90;5.53;;;;;;;1.91;95.54;95097.44;4838729;29;20050;-62
2021/12/15 05:07:49;;;;;;;15.85;5.38;;;;;;;1.85;95.13;95097.94;4837904;29;20060;-62
2021/12/15 05:10:18;;;;;;;23.52;5.28;;;;;;;1.59;95.49;95098.94;4838640;29;20050;-62
2021/12/15 05:12:46;;;;;;;16.95;4.90;;;;;;;1.68;96.38;95107.78;4820270;29;20058;-62
2021/12/15 05:15:13;;;;;;;38.75;5.00;;;;;;;1.77;95.80;95107.72;4812446;29;20047;-63
2021/12/15 05:17:40;;;;;;;28.03;5.50;;;;;;;1.67;95.82;95106.22;4819769;29;20046;-62
2021/12/15 05:20:09;;;;;;;33.17;6.35;;;;;;;1.42;96.29;95105.25;4820525;29;20062;-62
2021/12/15 05:22:37;;;;;;;55.25;6.93;;;;;;;1.14;98.33;95111.13;4820642;29;20409;-63
2021/12/15 05:25:07;;;;;;;35.75;7.18;;;;;;;1.10;99.25;95115.59;4821081;29;20046;-62
2021/12/15 05:27:35;;;;;;;65.78;8.98;;;;;;;0.98;99.71;95118.19;4820516;29;20045;-62
2021/12/15 05:30:04;;;;;;;18.13;6.03;;;;;;;1.19;99.41;95108.25;4821115;29;20046;-62
2021/12/15 05:32:31;;;;;;;59.20;7.40;;;;;;;1.23;98.72;95103.00;4820457;29;20051;-62
2021/12/15 05:34:59;;;;;;;31.77;6.18;;;;;;;1.27;99.33;95108.50;4820715;29;20062;-62
2021/12/15 05:37:27;;;;;;;46.00;8.73;;;;;;;1.07;99.11;95107.38;4820529;29;20050;-62
2021/12/15 05:39:55;;;;;;;43.17;7.28;;;;;;;1.09;99.34;95115.94;4819199;29;20056;-62
2021/12/15 05:42:24;;;;;;;24.33;6.20;;;;;;;1.21;99.41;95118.75;4820084;29;20050;-62
2021/12/15 05:44:51;;;;;;;16.98;6.00;;;;;;;1.41;99.23;95119.91;4820490;29;20065;-62
2021/12/15 05:47:20;;;;;;;20.55;5.25;;;;;;;1.53;98.49;95121.88;4834249;29;20047;-62
2021/12/15 05:49:48;;;;;;;16.05;4.78;;;;;;;1.59;97.67;95118.69;4824351;29;20068;-62
2021/12/15 05:52:16;;;;;;;20.75;5.32;;;;;;;1.65;97.38;95121.16;4837254;29;20049;-62
2021/12/15 05:54:43;;;;;;;33.33;5.90;;;;;;;1.25;96.97;95137.78;4837366;29;20415;-63
2021/12/15 05:57:10;;;;;;;19.17;5.57;;;;;;;1.23;98.13;95132.72;4837172;29;20066;-64
2021/12/15 05:59:38;;;;;;;18.02;5.60;;;;;;;1.19;98.49;95129.09;4838318;29;21438;-63
2021/12/15 06:02:07;;;;;;;15.23;5.30;;;;;;;1.11;98.84;95136.13;4838735;29;20064;-63
2021/12/15 06:04:34;;;;;;;28.40;5.45;;;;;;;1.14;98.89;95131.97;4836963;29;20052;-63
2021/12/15 06:07:06;;;;;;;43.53;7.00;;;;;;;1.10;98.51;95144.56;4838557;29;20052;-63
2021/12/15 06:09:33;;;;;;;27.98;5.78;;;;;;;0.95;99.57;95135.88;4838226;29;20042;-63
2021/12/15 06:12:02;;;;;;;26.23;6.38;;;;;;;1.01;98.87;95144.59;4838289;29;20038;-63
2021/12/15 06:14:30;;;;;;;23.77;5.05;;;;;;;1.00;98.94;95143.78;4838294;29;20074;-63
2021/12/15 06:17:01;;;;;;;39.72;5.72;;;;;;;1.03;98.40;95149.66;4838233;29;20054;-63
2021/12/15 06:19:27;;;;;;;16.33;4.90;;;;;;;1.20;98.16;95147.69;4838301;29;20046;-63
2021/12/15 06:21:54;;;;;;;15.10;4.80;;;;;;;1.12;97.44;95158.53;4837066;29;20172;-63
2021/12/15 06:24:21;;;;;;;17.73;5.10;;;;;;;1.15;98.25;95147.09;4836816;29;20507;-63
2021/12/15 06:26:49;;;;;;;14.00;4.43;;;;;;;0.85;97.49;95146.25;4837994;29;20068;-63
2021/12/15 06:29:16;;;;;;;12.63;5.85;;;;;;;0.75;98.00;95150.09;4836892;29;20058;-63
2021/12/15 06:31:43;;;;;;;8.80;2.90;;;;;;;0.49;98.74;95150.16;4840366;29;20050;-64
2021/12/15 06:34:10;;;;;;;9.55;4.10;;;;;;;0.58;99.04;95161.72;4841779;29;20050;-63
2021/12/15 06:36:37;;;;;;;9.50;4.47;;;;;;;0.68;98.92;95157.88;4841155;29;20795;-63
2021/12/15 06:39:06;;;;;;;12.88;4.35;;;;;;;0.77;98.31;95156.75;4841712;29;20209;-63
2021/12/15 06:41:33;;;;;;;8.52;4.18;;;;;;;0.61;97.95;95158.38;4840257;29;20507;-63
2021/12/15 06:44:00;;;;;;;10.73;4.67;;;;;;;0.63;98.20;95164.25;4840300;29;20072;-63
2021/12/15 07:00:04;;;;;;;9.52;5.30;;;;;;;0.39;98.83;95156.66;4804934;29;20054;-63
2021/12/15 07:02:31;;;;;;;10.98;6.25;;;;;;;0.37;98.39;95159.69;4807490;29;20062;-63
2021/12/15 07:04:59;;;;;;;14.27;5.68;;;;;;;0.47;98.82;95160.47;4820699;29;20115;-63
2021/12/15 07:07:25;;;;;;;10.20;5.03;;;;;;;0.56;98.61;95163.94;4840987;29;20050;-63
2021/12/15 07:09:52;;;;;;;8.03;4.10;;;;;;;0.54;98.28;95166.16;4855087;29;20046;-63
2021/12/15 07:12:19;;;;;;;7.90;3.80;;;;;;;0.37;98.47;95169.69;4839330;29;20050;-63
2021/12/15 07:14:46;;;;;;;7.15;3.75;;;;;;;0.41;98.58;95176.06;4839640;29;20050;-63
2021/12/15 07:17:20;;;;;;;13.82;7.03;;;;;;;0.48;98.86;95176.34;4841033;29;20046;-62
2021/12/15 07:22:44;;;;;;;13.60;6.47;;;;;;;0.42;98.34;95176.84;4840856;29;20432;-63
2021/12/15 07:25:13;;;;;;;17.00;7.63;;;;;;;0.35;99.11;95186.22;4841150;29;20057;-63
2021/12/15 07:27:41;;;;;;;10.98;4.28;;;;;;;0.29;98.35;95190.19;4840043;29;20639;-63
2021/12/15 07:30:09;;;;;;;7.30;3.53;;;;;;;0.27;98.23;95189.72;4840989;29;20052;-63
2021/12/15 07:32:37;;;;;;;6.43;3.25;;;;;;;0.35;98.27;95188.13;4840800;29;20080;-63
2021/12/15 07:35:05;;;;;;;8.37;3.97;;;;;;;0.31;97.80;95187.19;4840564;29;20053;-63
2021/12/15 07:37:34;;;;;;;9.40;4.00;;;;;;;0.24;97.89;95195.75;4840399;29;20054;-62
2021/12/15 07:40:06;;;;;;;8.68;4.10;;;;;;;0.32;98.29;95192.28;4840286;29;20401;-63
2021/12/15 07:42:37;;;;;;;9.35;4.18;;;;;;;0.34;98.29;95191.94;4839863;29;20053;-63
2021/12/15 07:45:10;;;;;;;11.25;5.00;;;;;;;0.50;97.64;95186.84;4839530;29;20042;-63
2021/12/15 07:47:37;;;;;;;12.33;4.57;;;;;;;0.52;97.47;95200.81;4807701;29;20911;-64
2021/12/15 07:50:05;;;;;;;11.02;4.85;;;;;;;0.75;97.30;95196.03;4829767;29;20050;-64
2021/12/15 07:52:32;;;;;;;39.53;5.20;;;;;;;0.56;96.26;95199.88;4824016;29;20062;-63
2021/12/15 07:54:59;;;;;;;11.30;3.80;;;;;;;0.46;97.33;95202.09;4839986;29;20518;-64
2021/12/15 07:57:29;;;;;;;14.43;4.05;;;;;;;0.34;97.14;95214.34;4819751;29;20402;-63
2021/12/15 07:59:57;;;;;;;12.47;4.57;;;;;;;0.51;98.10;95212.75;4821287;29;20050;-64
2021/12/15 08:02:26;;;;;;;28.55;5.32;;;;;;;0.57;97.92;95211.47;4808369;29;20058;-64
2021/12/15 08:04:53;;;;;;;23.55;5.25;;;;;;;0.68;98.08;95217.31;4822088;29;20101;-64
2021/12/15 08:07:20;;;;;;;13.25;4.55;;;;;;;0.77;97.48;95221.59;4839892;29;20065;-63
2021/12/15 08:09:49;;;;;;;10.90;4.10;;;;;;;0.76;96.26;95220.00;4840045;29;20049;-64
2021/12/15 08:12:16;;;;;;;11.07;4.57;;;;;;;0.67;96.24;95221.94;4853896;29;20056;-63
2021/12/15 08:14:44;;;;;;;16.30;5.05;;;;;;;0.87;95.88;95228.59;4854426;29;20060;-63
2021/12/15 08:17:10;;;;;;;12.35;5.03;;;;;;;1.06;95.68;95225.50;4840189;29;20049;-64
2021/12/15 08:19:37;;;;;;;15.77;4.93;;;;;;;1.12;94.40;95226.13;4839500;29;20660;-64
2021/12/15 08:22:04;;;;;;;13.98;4.90;;;;;;;1.24;94.37;95220.03;4839756;29;20062;-64
2021/12/15 08:24:31;;;;;;;8.70;2.70;;;;;;;1.08;92.57;95228.69;4839522;29;20049;-64
2021/12/15 08:26:58;;;;;;;6.30;2.80;;;;;;;0.96;93.06;95228.56;4839406;29;20518;-64
2021/12/15 08:29:24;;;;;;;7.43;3.25;;;;;;;1.06;92.58;95233.59;4839646;29;20163;-63
2021/12/15 08:31:51;;;;;;;13.45;6.07;;;;;;;1.25;92.75;95237.84;4839863;29;20062;-64
2021/12/15 08:34:18;;;;;;;10.93;5.00;;;;;;;1.23;91.81;95238.19;4839733;29;20062;-63
2021/12/15 08:36:49;;;;;;;7.37;3.23;;;;;;;1.00;92.26;95240.31;4840075;29;20058;-64
2021/12/15 08:39:17;;;;;;;6.70;2.67;;;;;;;0.95;91.97;95243.97;4839624;29;20072;-64
2021/12/15 08:41:44;;;;;;;5.60;2.92;;;;;;;0.72;94.04;95246.06;4839423;29;20045;-64
2021/12/15 08:44:11;;;;;;;7.28;3.88;;;;;;;0.99;93.06;95247.63;4838059;29;20092;-64
2021/12/15 08:46:41;;;;;;;8.00;3.38;;;;;;;1.20;92.07;95244.22;4838605;29;20916;-64
2021/12/15 08:49:12;;;;;;;8.10;4.10;;;;;;;1.56;90.72;95243.78;4839374;29;20081;-64
2021/12/15 08:51:39;;;;;;;9.23;4.50;;;;;;;1.52;90.66;95240.13;4838841;29;20828;-64
2021/12/15 08:54:09;;;;;;;6.53;3.33;;;;;;;1.42;90.91;95248.63;4838731;29;20057;-64
2021/12/15 08:56:37;;;;;;;7.68;3.63;;;;;;;1.35;91.13;95249.13;4838900;29;20069;-64
2021/12/15 08:59:05;;;;;;;9.45;4.93;;;;;;;1.35;91.25;95249.13;4839248;29;20115;-64
2021/12/15 09:01:33;;;;;;;8.97;4.03;;;;;;;1.28;91.30;95248.81;4838949;29;20050;-64
2021/12/15 09:04:00;;;;;;;9.07;3.97;;;;;;;1.30;91.75;95248.50;4839174;29;20057;-64
2021/12/15 09:06:27;;;;;;;8.75;3.80;;;;;;;1.25;91.93;95252.19;4838866;29;20050;-64
2021/12/15 09:08:54;;;;;;;6.82;3.05;;;;;;;0.98;93.26;95250.66;4838931;29;20064;-64
2021/12/15 09:11:23;;;;;;;6.10;3.08;;;;;;;0.79;92.54;95259.91;4838871;29;20060;-64
2021/12/15 09:13:53;;;;;;;9.27;3.20;;;;;;;0.41;95.49;95256.28;4839121;29;20054;-64
2021/12/15 09:16:23;;;;;;;8.15;3.08;;;;;;;0.73;94.52;95258.47;4838770;29;20058;-64
2021/12/15 09:18:51;;;;;;;9.18;3.95;;;;;;;1.16;93.81;95265.72;4838956;29;20408;-64
2021/12/15 09:21:21;;;;;;;10.45;4.45;;;;;;;1.20;93.16;95260.44;4838656;29;20054;-64
2021/12/15 09:23:48;;;;;;;10.60;4.43;;;;;;;1.44;91.88;95254.50;4839064;29;20065;-64
2021/12/15 09:26:16;;;;;;;10.40;3.73;;;;;;;1.27;92.16;95263.47;4838833;29;20125;-63
2021/12/15 09:28:43;;;;;;;11.57;4.97;;;;;;;0.91;92.99;95263.88;4838105;29;20058;-64
2021/12/15 09:31:10;;;;;;;7.65;3.30;;;;;;;0.82;93.69;95260.38;4852994;29;20434;-64
2021/12/15 09:33:38;;;;;;;7.10;3.20;;;;;;;1.19;92.11;95262.38;4838433;29;20294;-64
2021/12/15 09:36:06;;;;;;;7.05;2.60;;;;;;;1.35;90.51;95259.94;4838717;29;20058;-64
2021/12/15 09:38:33;;;;;;;7.23;3.20;;;;;;;1.20;91.10;95255.84;4838218;29;20066;-64
2021/12/15 09:41:05;;;;;;;16.02;6.70;;;;;;;1.51;91.10;95256.69;4838629;29;20105;-64
2021/12/15 09:43:32;;;;;;;16.17;6.55;;;;;;;1.91;89.57;95259.84;4809356;29;20472;-64
2021/12/15 09:46:08;;;;;;;13.73;5.45;;;;;;;2.14;88.84;95252.22;4802486;29;20043;-65
2021/12/15 10:02:47;;;;;;;10.23;5.38;;;;;;;2.23;87.55;95249.44;4838076;29;20050;-64
2021/12/15 10:19:43;;;;;;;11.73;5.90;;;;;;;2.65;85.61;95238.59;4841625;29;20639;-64
2021/12/15 10:25:01;;;;;;;8.20;3.50;;;;;;;2.86;85.12;95230.47;4841169;29;20423;-64
2021/12/15 10:27:40;;;;;;;7.57;3.42;;;;;;;2.97;84.23;95233.53;4841615;29;20054;-64
2021/12/15 10:30:15;;;;;;;7.45;3.45;;;;;;;2.89;84.16;95235.19;4841522;29;20555;-64
2021/12/15 10:32:43;;;;;;;6.83;3.20;;;;;;;2.78;84.41;95226.69;4841315;29;21708;-65
2021/12/15 10:35:27;;;;;;;7.57;3.63;;;;;;;2.72;84.10;95230.75;4842018;29;20159;-64
2021/12/15 10:38:12;;;;;;;5.10;2.60;;;;;;;3.03;84.01;95237.63;4841078;29;21045;-64
2021/12/15 10:40:48;;;;;;;5.20;2.10;;;;;;;2.88;83.52;95236.34;4841206;29;20121;-64
2021/12/15 10:43:15;;;;;;;3.80;1.98;;;;;;;2.90;83.53;95227.88;4810729;29;20061;-63
2021/12/15 10:45:47;;;;;;;8.90;4.60;;;;;;;2.98;83.45;95229.72;4817862;29;20405;-64
2021/12/15 10:48:34;;;;;;;7.72;4.03;;;;;;;3.04;82.82;95230.28;4822560;29;20080;-63
2021/12/15 10:51:19;;;;;;;6.10;3.33;;;;;;;2.91;83.42;95229.44;4836439;29;20042;-64
2021/12/15 10:53:47;;;;;;;5.60;2.83;;;;;;;2.66;84.70;95226.66;4840708;29;20208;-64
2021/12/15 10:56:19;;;;;;;7.47;3.60;;;;;;;2.55;85.11;95230.88;4841045;29;20145;-63
2021/12/15 10:58:49;;;;;;;7.23;3.10;;;;;;;2.79;84.59;95230.97;4841483;29;20444;-64
2021/12/15 11:01:44;;;;;;;4.88;2.30;;;;;;;2.05;86.61;95232.53;4840941;29;20060;-63
2021/12/15 11:04:22;;;;;;;4.63;2.20;;;;;;;1.65;88.47;95234.81;4841279;29;20050;-64
2021/12/15 11:07:31;;;;;;;4.93;2.20;;;;;;;1.96;88.52;95237.22;4854694;29;20050;-64
2021/12/15 11:10:00;;;;;;;5.18;2.28;;;;;;;1.91;87.66;95234.69;4840110;29;20058;-64
2021/12/15 11:12:32;;;;;;;4.30;1.90;;;;;;;2.06;88.51;95217.88;4854787;29;20058;-64
2021/12/15 11:15:13;;;;;;;4.45;2.20;;;;;;;2.14;87.55;95216.22;4841091;29;20053;-64
2021/12/15 11:17:49;;;;;;;7.57;2.88;;;;;;;2.74;86.08;95208.72;4839354;29;21660;-64
2021/12/15 11:20:22;;;;;;;5.43;2.78;;;;;;;2.96;84.49;95215.69;4839337;29;20046;-63
2021/12/15 11:23:09;;;;;;;6.35;2.90;;;;;;;2.89;84.55;95215.44;4841108;29;20050;-63
2021/12/15 11:25:38;;;;;;;5.27;2.40;;;;;;;2.70;84.53;95210.53;4840873;29;20053;-64
2021/12/15 11:28:11;;;;;;;5.97;3.10;;;;;;;2.39;86.47;95214.44;4841107;29;20077;-64
2021/12/15 11:30:40;;;;;;;9.25;5.05;;;;;;;2.78;84.86;95205.00;4839952;29;20652;-63
2021/12/15 11:33:14;;;;;;;7.40;3.92;;;;;;;2.90;84.41;95206.97;4840941;29;20053;-63
2021/12/15 11:35:46;;;;;;;8.20;4.15;;;;;;;2.30;85.61;95197.47;4840200;29;20839;-63
2021/12/15 11:38:21;;;;;;;9.33;4.77;;;;;;;2.04;88.44;95203.09;4840088;29;20046;-62
2021/12/15 11:40:57;;;;;;;8.40;3.42;;;;;;;2.40;86.70;95191.66;4840984;29;20464;-63
2021/12/15 11:43:47;;;;;;;6.97;3.30;;;;;;;2.86;85.15;95192.50;4808009;29;20175;-64
2021/12/15 11:46:20;;;;;;;6.65;3.20;;;;;;;3.11;83.93;95187.91;4820885;29;20058;-63
2021/12/15 11:48:50;;;;;;;6.28;3.20;;;;;;;3.01;83.32;95180.22;4822723;29;20054;-63
2021/12/15 11:51:40;;;;;;;6.63;2.97;;;;;;;3.05;83.46;95189.25;4837322;29;20061;-63
2021/12/15 11:54:15;;;;;;;7.70;4.25;;;;;;;3.06;83.64;95190.03;4840516;29;20054;-64
2021/12/15 11:56:42;;;;;;;10.25;5.00;;;;;;;3.18;83.55;95190.88;4839848;29;20417;-64
2021/12/15 11:59:49;;;;;;;6.57;2.85;;;;;;;2.40;84.93;95186.25;4840891;29;20049;-64
2021/12/15 12:02:28;;;;;;;8.57;4.22;;;;;;;2.88;84.35;95192.97;4837820;29;20719;-63
2021/12/15 12:04:58;;;;;;;6.57;3.30;;;;;;;2.55;85.32;95185.59;4839177;29;20072;-64
2021/12/15 12:07:33;;;;;;;5.97;2.90;;;;;;;2.08;86.40;95183.13;4840118;29;20057;-63
2021/12/15 12:10:18;;;;;;;5.45;2.80;;;;;;;1.58;89.58;95186.63;4840467;29;20050;-64
2021/12/15 12:12:52;;;;;;;4.55;2.50;;;;;;;2.46;87.15;95181.41;4839734;29;20116;-64
2021/12/15 12:15:27;;;;;;;18.35;9.20;;;;;;;2.77;85.65;95180.94;4839761;29;20077;-64
2021/12/15 12:17:58;;;;;;;8.30;4.30;;;;;;;2.93;84.38;95173.75;4840585;29;20049;-64
2021/12/15 12:20:34;;;;;;;7.63;4.18;;;;;;;2.83;85.05;95166.06;4839721;29;20053;-65
2021/12/15 12:23:04;;;;;;;8.60;4.93;;;;;;;2.77;85.84;95176.31;4839754;29;20050;-64
2021/12/15 12:25:37;;;;;;;9.13;4.88;;;;;;;2.82;85.51;95178.03;4839681;29;20488;-64
2021/12/15 12:28:07;;;;;;;8.65;4.55;;;;;;;2.92;84.86;95176.81;4840359;29;20045;-64
2021/12/15 12:30:46;;;;;;;7.90;4.30;;;;;;;2.87;84.94;95169.69;4839953;29;20045;-64
2021/12/15 12:33:16;;;;;;;7.85;4.32;;;;;;;2.87;84.96;95171.59;4839569;29;20464;-63
2021/12/15 12:35:51;;;;;;;8.02;4.90;;;;;;;2.95;85.03;95171.50;4840379;29;20070;-64
2021/12/15 12:38:25;;;;;;;9.68;4.55;;;;;;;3.06;84.25;95171.06;4839613;29;20064;-64
2021/12/15 12:40:56;;;;;;;7.85;4.15;;;;;;;2.92;84.75;95172.19;4839982;29;20058;-64
2021/12/15 12:43:30;;;;;;;8.23;4.10;;;;;;;2.82;85.36;95169.91;4807273;29;20055;-63
2021/12/15 12:46:09;;;;;;;8.52;4.55;;;;;;;2.65;85.87;95165.44;4832243;29;20139;-64
2021/12/15 12:48:56;;;;;;;8.07;4.45;;;;;;;2.92;85.31;95164.06;4821295;29;20501;-64
2021/12/15 12:59:54;;;;;;;14.77;7.47;;;;;;;2.91;85.46;95159.75;4838806;29;20911;-64
2021/12/15 13:02:41;;;;;;;8.88;4.70;;;;;;;2.62;85.60;95159.88;4838853;29;20050;-64
2021/12/15 13:05:28;;;;;;;7.53;4.22;;;;;;;2.99;84.25;95158.06;4839199;29;20397;-64
2021/12/15 13:07:58;;;;;;;15.82;8.13;;;;;;;3.14;84.19;95153.91;4838698;29;20851;-64
2021/12/15 13:10:48;;;;;;;8.60;4.47;;;;;;;3.18;83.74;95157.53;4838905;29;20467;-64
2021/12/15 13:13:27;;;;;;;20.95;10.82;;;;;;;3.28;82.64;95162.53;4838742;29;20056;-63
2021/12/15 13:15:59;;;;;;;8.65;4.38;;;;;;;3.12;83.49;95153.44;4839492;29;20093;-64
2021/12/15 13:18:28;;;;;;;7.75;4.00;;;;;;;2.88;84.85;95151.47;4838707;29;20057;-64